Time;durP1;ratioP1;P1;durP2;ratioP2;P2;SDS_P1;SDS_P2;PMS_P1;PMS_P2;Temp;Humidity;BMP_temperature;BMP_pressure;BME280_temperature;BME280_humidity;BME280_pressure;Samples;Min_cycle;Max_cycle;Signal;HPM_P1;HPM_P2
2023/09/25 00:00:35;;;;;;;2.63;1.37;;;12.60;41.20;;;;;;5015579;28;20204;-45
2023/09/25 00:03:03;;;;;;;2.53;1.20;;;12.50;42.20;;;;;;5015480;28;20234;-47
2023/09/25 00:05:29;;;;;;;2.40;1.23;;;12.50;43.70;;;;;;5015668;28;20184;-48
2023/09/25 00:07:56;;;;;;;3.53;1.23;;;12.50;43.90;;;;;;5015861;28;20264;-47
2023/09/25 00:10:22;;;;;;;2.57;1.27;;;12.40;44.60;;;;;;5015441;28;20361;-46
2023/09/25 00:12:48;;;;;;;2.70;1.33;;;12.40;45.30;;;;;;5015619;28;20189;-46
2023/09/25 00:15:14;;;;;;;1.97;1.30;;;12.30;45.00;;;;;;5015954;28;20557;-45
2023/09/25 00:17:42;;;;;;;2.13;1.33;;;12.40;45.70;;;;;;5015635;28;20536;-48
2023/09/25 00:20:10;;;;;;;2.00;1.10;;;12.40;45.70;;;;;;5016459;28;20202;-48
2023/09/25 00:22:40;;;;;;;2.73;1.27;;;12.40;45.50;;;;;;5014881;28;20178;-44
2023/09/25 00:25:06;;;;;;;1.33;1.10;;;12.30;46.90;;;;;;5016432;28;20178;-47
2023/09/25 00:27:32;;;;;;;3.60;1.33;;;12.30;48.10;;;;;;5016559;28;20550;-46
2023/09/25 00:29:59;;;;;;;5.70;1.40;;;12.30;49.00;;;;;;5015041;28;20243;-48
2023/09/25 00:32:25;;;;;;;3.77;1.37;;;12.20;51.00;;;;;;5016484;28;20178;-47
2023/09/25 00:34:50;;;;;;;2.03;1.20;;;12.20;51.40;;;;;;5016049;28;20201;-48
2023/09/25 00:37:16;;;;;;;1.73;1.17;;;12.10;52.90;;;;;;5015782;28;20186;-47
2023/09/25 00:39:44;;;;;;;3.87;1.33;;;12.10;53.90;;;;;;5014739;28;20237;-46
2023/09/25 00:42:10;;;;;;;3.07;1.40;;;12.00;55.00;;;;;;5015851;28;20186;-46
2023/09/25 00:44:36;;;;;;;1.97;1.30;;;11.90;56.40;;;;;;5014573;28;20188;-46
2023/09/25 00:47:03;;;;;;;3.63;1.60;;;11.90;59.10;;;;;;5016812;28;20185;-46
2023/09/25 00:49:31;;;;;;;2.07;1.17;;;11.80;64.30;;;;;;5016198;28;20264;-46
2023/09/25 00:51:59;;;;;;;3.47;1.33;;;11.80;67.60;;;;;;5015728;28;20185;-47
2023/09/25 00:54:25;;;;;;;1.87;1.27;;;11.70;71.40;;;;;;5016171;28;20213;-48
2023/09/25 00:56:51;;;;;;;5.77;1.60;;;11.60;75.00;;;;;;5014486;28;20186;-46
2023/09/25 00:59:18;;;;;;;4.10;1.40;;;11.60;76.30;;;;;;5015608;28;20698;-46
2023/09/25 01:01:44;;;;;;;1.90;1.13;;;11.50;79.20;;;;;;5016074;28;20189;-46
2023/09/25 01:04:10;;;;;;;3.33;1.40;;;11.40;82.70;;;;;;5014357;28;20178;-47
2023/09/25 01:06:36;;;;;;;4.20;1.20;;;11.40;84.80;;;;;;5014346;28;20182;-47
2023/09/25 01:09:03;;;;;;;3.13;1.20;;;11.30;87.10;;;;;;4997858;28;20268;-47
2023/09/25 01:11:29;;;;;;;3.23;1.50;;;11.30;90.20;;;;;;5015431;28;20181;-46
2023/09/25 01:13:55;;;;;;;2.27;1.63;;;11.20;91.50;;;;;;5015038;28;20317;-47
2023/09/25 01:16:24;;;;;;;1.83;1.50;;;11.20;92.40;;;;;;5015326;28;20197;-47
2023/09/25 01:18:50;;;;;;;4.43;1.77;;;11.10;94.50;;;;;;5015260;28;20174;-47
2023/09/25 01:21:16;;;;;;;2.27;1.50;;;11.10;95.20;;;;;;5014989;28;20181;-47
2023/09/25 01:23:42;;;;;;;2.20;1.30;;;11.10;95.60;;;;;;5015885;28;20221;-48
2023/09/25 01:26:08;;;;;;;4.50;1.50;;;11.20;96.20;;;;;;5015424;28;20196;-47
2023/09/25 01:28:34;;;;;;;2.50;1.40;;;11.10;96.70;;;;;;5015189;28;20182;-47
2023/09/25 01:31:00;;;;;;;2.07;1.20;;;11.10;97.30;;;;;;5013943;28;20201;-45
2023/09/25 01:33:26;;;;;;;2.30;1.20;;;11.20;97.90;;;;;;5015647;28;20209;-48
2023/09/25 01:35:52;;;;;;;1.80;1.33;;;11.20;98.40;;;;;;5014322;28;20691;-48
2023/09/25 01:38:18;;;;;;;3.43;1.50;;;11.20;97.50;;;;;;5015540;28;20185;-47
2023/09/25 01:40:44;;;;;;;4.53;1.40;;;11.20;99.30;;;;;;5013851;28;20577;-48
2023/09/25 01:43:09;;;;;;;4.20;1.50;;;11.10;97.90;;;;;;5015374;28;20644;-46
2023/09/25 01:45:35;;;;;;;1.73;1.40;;;11.10;97.70;;;;;;5014986;28;20186;-47
2023/09/25 01:48:01;;;;;;;2.07;1.10;;;11.10;98.00;;;;;;5014217;28;20188;-47
2023/09/25 01:50:28;;;;;;;3.33;1.60;;;11.10;97.40;;;;;;5013501;28;20681;-47
2023/09/25 01:52:57;;;;;;;2.80;1.37;;;11.10;98.60;;;;;;5015229;28;20185;-47
2023/09/25 01:55:26;;;;;;;3.87;1.43;;;11.00;98.50;;;;;;5014517;28;20178;-46
2023/09/25 01:57:52;;;;;;;1.70;1.23;;;11.00;99.10;;;;;;5013074;28;20208;-47
2023/09/25 02:00:18;;;;;;;3.33;1.47;;;11.00;99.90;;;;;;5014662;28;20197;-46
2023/09/25 02:02:45;;;;;;;1.67;1.20;;;11.00;99.90;;;;;;5013222;28;20188;-48
2023/09/25 02:05:11;;;;;;;3.10;1.60;;;11.00;99.90;;;;;;5013441;28;20174;-45
2023/09/25 02:07:37;;;;;;;3.17;1.40;;;10.90;99.90;;;;;;5014755;28;20688;-46
2023/09/25 02:10:03;;;;;;;3.00;1.30;;;10.90;99.90;;;;;;5014665;28;20202;-46
2023/09/25 02:12:29;;;;;;;2.93;1.13;;;10.90;99.90;;;;;;5014701;28;20185;-47
2023/09/25 02:14:58;;;;;;;2.70;1.30;;;10.90;99.90;;;;;;5014817;28;20209;-46
2023/09/25 02:17:24;;;;;;;4.20;1.50;;;10.90;99.90;;;;;;5013006;28;20178;-47
2023/09/25 02:19:50;;;;;;;3.83;1.60;;;10.90;99.90;;;;;;5014277;28;20193;-48
2023/09/25 02:22:16;;;;;;;1.47;1.17;;;10.90;99.90;;;;;;5013658;28;20178;-48
2023/09/25 02:24:42;;;;;;;4.27;1.70;;;10.90;99.90;;;;;;5014925;28;20274;-46
2023/09/25 02:27:08;;;;;;;3.47;1.40;;;10.90;99.90;;;;;;5016326;28;20195;-47
2023/09/25 02:29:34;;;;;;;2.07;1.40;;;10.90;99.90;;;;;;5015910;28;20205;-46
2023/09/25 02:31:59;;;;;;;2.47;1.40;;;10.90;99.90;;;;;;5014029;28;20599;-47
2023/09/25 02:34:25;;;;;;;3.10;1.30;;;10.90;99.90;;;;;;5013868;28;20232;-47
2023/09/25 02:36:51;;;;;;;8.27;1.80;;;10.90;99.70;;;;;;5014052;28;20544;-46
2023/09/25 02:39:16;;;;;;;3.50;1.40;;;10.90;99.90;;;;;;5013594;28;20251;-46
2023/09/25 02:41:42;;;;;;;2.97;1.47;;;10.90;99.90;;;;;;5013793;28;20177;-48
2023/09/25 02:44:08;;;;;;;3.27;1.77;;;10.90;99.90;;;;;;5012426;28;20186;-45
2023/09/25 02:46:33;;;;;;;2.87;1.40;;;10.90;99.90;;;;;;5014052;28;20187;-47
2023/09/25 02:48:59;;;;;;;4.67;1.43;;;10.80;99.60;;;;;;5013776;28;20709;-49
2023/09/25 02:51:25;;;;;;;2.37;1.47;;;10.80;99.80;;;;;;5013946;28;20182;-47
2023/09/25 02:53:52;;;;;;;2.50;1.50;;;10.80;99.80;;;;;;5012076;28;20217;-48
2023/09/25 02:56:18;;;;;;;1.33;1.10;;;10.80;99.90;;;;;;5013567;28;20169;-48
2023/09/25 02:58:45;;;;;;;1.83;1.23;;;10.80;99.90;;;;;;5013459;28;20236;-46
2023/09/25 03:01:11;;;;;;;3.37;1.50;;;10.80;99.90;;;;;;5016966;28;20208;-48
2023/09/25 03:03:38;;;;;;;1.67;1.50;;;10.80;99.20;;;;;;5017381;28;20646;-47
2023/09/25 03:06:04;;;;;;;2.17;1.40;;;10.90;95.60;;;;;;5016934;28;20308;-48
2023/09/25 03:08:30;;;;;;;3.27;1.50;;;10.90;94.00;;;;;;5015698;28;20272;-49
2023/09/25 03:10:56;;;;;;;2.73;1.43;;;11.00;92.50;;;;;;5017105;28;20210;-49
2023/09/25 03:13:21;;;;;;;3.63;1.30;;;11.00;90.60;;;;;;5016755;28;20212;-47
2023/09/25 03:15:47;;;;;;;2.80;1.40;;;11.10;84.80;;;;;;5016777;28;20210;-45
2023/09/25 03:18:13;;;;;;;2.67;1.37;;;11.10;84.60;;;;;;5015367;28;20268;-48
2023/09/25 03:20:39;;;;;;;4.00;1.40;;;11.10;81.60;;;;;;5015261;28;20201;-48
2023/09/25 03:23:05;;;;;;;3.07;1.30;;;11.10;81.40;;;;;;5016509;28;20626;-47
2023/09/25 03:25:37;;;;;;;1.83;1.37;;;11.10;87.50;;;;;;5016531;28;20173;-47
2023/09/25 03:28:03;;;;;;;2.90;1.30;;;11.10;81.10;;;;;;5015237;28;20273;-46
2023/09/25 03:30:29;;;;;;;1.57;1.20;;;11.10;83.00;;;;;;5016565;28;20299;-47
2023/09/25 03:32:55;;;;;;;3.80;1.17;;;11.00;85.80;;;;;;5016388;28;20186;-49
2023/09/25 03:35:21;;;;;;;2.70;1.30;;;11.10;85.10;;;;;;5017028;28;20231;-49
2023/09/25 03:37:47;;;;;;;1.70;1.07;;;11.10;86.20;;;;;;5016412;28;20191;-46
2023/09/25 03:40:13;;;;;;;1.97;1.40;;;11.10;84.10;;;;;;5016113;28;20295;-48
2023/09/25 03:42:40;;;;;;;3.03;1.30;;;11.10;84.90;;;;;;5016387;28;20183;-48
2023/09/25 03:45:06;;;;;;;1.50;1.10;;;11.10;85.70;;;;;;5016776;28;20181;-48
2023/09/25 03:47:34;;;;;;;2.03;1.10;;;11.10;86.40;;;;;;5015949;28;20224;-47
2023/09/25 03:50:00;;;;;;;1.20;1.10;;;11.10;89.70;;;;;;5016491;28;20703;-46
2023/09/25 03:52:26;;;;;;;1.70;1.10;;;11.10;88.40;;;;;;5016042;28;20178;-48
2023/09/25 03:54:51;;;;;;;1.30;1.10;;;11.10;88.40;;;;;;5016287;28;20575;-47
2023/09/25 03:57:17;;;;;;;2.23;1.30;;;11.10;86.40;;;;;;5015947;28;20188;-47
2023/09/25 03:59:43;;;;;;;2.13;1.10;;;11.10;87.40;;;;;;5016178;28;20591;-48
2023/09/25 04:02:09;;;;;;;3.87;1.20;;;11.10;90.20;;;;;;5014719;28;20181;-46
2023/09/25 04:04:34;;;;;;;3.17;1.40;;;11.10;88.90;;;;;;5016046;28;20196;-47
2023/09/25 04:07:00;;;;;;;1.83;1.40;;;11.10;90.10;;;;;;5014406;28;20189;-48
2023/09/25 04:09:26;;;;;;;2.70;1.57;;;11.10;89.30;;;;;;5016008;28;20266;-47
2023/09/25 04:11:52;;;;;;;3.07;1.17;;;11.10;88.50;;;;;;5014469;28;20193;-41
2023/09/25 04:14:17;;;;;;;2.40;1.10;;;11.10;84.10;;;;;;5015590;28;20203;-42
2023/09/25 04:16:43;;;;;;;3.10;1.63;;;11.10;86.00;;;;;;5016148;28;20692;-42
2023/09/25 04:19:08;;;;;;;2.93;1.03;;;11.10;87.40;;;;;;5016908;28;20561;-43
2023/09/25 04:21:34;;;;;;;1.87;1.20;;;11.10;88.70;;;;;;5016133;28;20178;-42
2023/09/25 04:24:03;;;;;;;2.20;1.20;;;11.10;90.50;;;;;;5015459;28;20195;-44
2023/09/25 04:26:29;;;;;;;2.50;1.20;;;11.10;90.10;;;;;;5015546;28;20189;-40
2023/09/25 04:28:55;;;;;;;1.77;1.33;;;11.10;85.40;;;;;;5015456;28;20636;-43
2023/09/25 04:31:21;;;;;;;3.87;1.43;;;11.10;87.20;;;;;;5015098;28;20197;-39
2023/09/25 04:33:46;;;;;;;1.57;1.23;;;11.10;87.00;;;;;;5015048;28;20205;-42
2023/09/25 04:36:12;;;;;;;3.60;1.27;;;11.10;82.60;;;;;;5015580;28;20187;-43
2023/09/25 04:38:38;;;;;;;1.43;1.10;;;11.10;81.40;;;;;;5014982;28;20658;-41
2023/09/25 04:41:05;;;;;;;2.17;1.40;;;11.10;85.10;;;;;;5014922;28;20204;-42
2023/09/25 04:43:34;;;;;;;2.03;1.33;;;11.10;81.70;;;;;;5016027;28;20196;-42
2023/09/25 04:46:00;;;;;;;2.77;1.47;;;11.20;80.50;;;;;;5015187;28;20641;-41
2023/09/25 04:48:26;;;;;;;3.23;1.40;;;11.20;82.00;;;;;;5014815;28;20211;-42
2023/09/25 04:50:52;;;;;;;2.73;1.20;;;11.20;74.50;;;;;;5015025;28;20661;-40
2023/09/25 04:53:21;;;;;;;2.13;1.37;;;11.20;75.80;;;;;;5014936;28;20223;-41
2023/09/25 04:55:47;;;;;;;4.13;1.80;;;11.20;74.10;;;;;;5014641;28;20195;-42
2023/09/25 04:58:12;;;;;;;2.33;1.53;;;11.20;82.70;;;;;;5014704;28;20288;-42
2023/09/25 05:00:40;;;;;;;1.80;1.30;;;11.20;79.20;;;;;;5014529;28;20644;-40
2023/09/25 05:03:07;;;;;;;3.17;1.53;;;11.20;82.00;;;;;;5014797;28;20601;-41
2023/09/25 05:05:32;;;;;;;2.83;1.50;;;11.20;77.80;;;;;;5013278;28;20189;-40
2023/09/25 05:07:59;;;;;;;1.80;1.33;;;11.20;72.10;;;;;;5014709;28;20216;-40
2023/09/25 05:10:28;;;;;;;2.00;1.57;;;11.20;76.50;;;;;;5014364;28;20204;-40
2023/09/25 05:12:55;;;;;;;2.10;1.30;;;11.20;81.40;;;;;;5014644;28;20618;-42
2023/09/25 05:15:21;;;;;;;2.30;1.50;;;11.20;74.50;;;;;;5014608;28;20192;-42
2023/09/25 05:17:48;;;;;;;3.80;1.60;;;11.20;77.30;;;;;;5014243;28;20193;-39
2023/09/25 05:20:16;;;;;;;5.27;1.50;;;11.20;77.10;;;;;;5014382;28;20208;-42
2023/09/25 05:22:44;;;;;;;1.50;1.40;;;11.20;78.00;;;;;;5014484;28;20231;-41
2023/09/25 05:25:11;;;;;;;2.47;1.53;;;11.20;84.10;;;;;;5014422;28;20282;-43
2023/09/25 05:27:39;;;;;;;1.80;1.30;;;11.20;84.50;;;;;;5014189;28;20193;-40
2023/09/25 05:30:09;;;;;;;2.43;1.47;;;11.10;84.80;;;;;;5014395;28;20213;-41
2023/09/25 05:32:35;;;;;;;3.77;1.70;;;11.10;88.90;;;;;;5014415;28;20188;-44
2023/09/25 05:35:01;;;;;;;2.77;1.50;;;11.10;87.10;;;;;;5014219;28;20224;-42
2023/09/25 05:37:27;;;;;;;5.17;1.40;;;11.00;89.60;;;;;;5013925;28;20184;-44
2023/09/25 05:39:53;;;;;;;4.33;1.60;;;11.10;87.10;;;;;;5014081;28;20223;-41
2023/09/25 05:42:18;;;;;;;2.33;1.70;;;11.00;90.40;;;;;;5014204;28;20181;-41
2023/09/25 05:44:44;;;;;;;2.10;1.40;;;11.10;90.30;;;;;;5014527;28;20554;-44
2023/09/25 05:47:10;;;;;;;3.03;1.97;;;11.00;91.00;;;;;;5013974;28;20184;-40
2023/09/25 05:49:35;;;;;;;2.70;1.60;;;11.00;91.90;;;;;;5014034;28;20216;-43
2023/09/25 05:52:01;;;;;;;3.40;1.50;;;11.00;93.60;;;;;;5013837;28;20544;-41
2023/09/25 05:54:26;;;;;;;2.10;1.30;;;11.00;93.90;;;;;;5013780;28;20239;-41
2023/09/25 05:56:52;;;;;;;3.00;1.70;;;11.00;92.40;;;;;;5013826;28;20652;-42
2023/09/25 05:59:18;;;;;;;3.87;1.63;;;11.00;92.80;;;;;;5013637;28;20290;-40
2023/09/25 06:01:44;;;;;;;2.37;1.60;;;11.00;92.70;;;;;;5014005;28;20644;-43
2023/09/25 06:04:10;;;;;;;4.10;1.63;;;11.10;93.70;;;;;;5013816;28;20265;-43
2023/09/25 06:06:35;;;;;;;2.30;1.40;;;11.10;94.40;;;;;;5013918;28;20215;-40
2023/09/25 06:09:02;;;;;;;2.80;1.63;;;11.10;94.30;;;;;;5013997;28;20180;-41
2023/09/25 06:11:28;;;;;;;4.03;1.63;;;11.10;93.90;;;;;;5015008;28;20680;-44
2023/09/25 06:13:54;;;;;;;3.80;1.50;;;11.10;93.40;;;;;;5013524;28;20355;-42
2023/09/25 06:16:19;;;;;;;3.13;1.30;;;11.20;91.70;;;;;;5013686;28;20255;-39
2023/09/25 06:18:46;;;;;;;3.07;1.80;;;11.20;91.70;;;;;;5013412;28;20542;-42
2023/09/25 06:21:13;;;;;;;3.13;1.60;;;11.30;92.40;;;;;;5013548;28;20174;-42
2023/09/25 06:23:39;;;;;;;3.20;1.37;;;11.40;92.00;;;;;;5014007;28;20192;-42
2023/09/25 06:26:06;;;;;;;3.03;1.73;;;11.40;93.50;;;;;;5013486;28;20195;-39
2023/09/25 06:28:32;;;;;;;5.63;1.40;;;11.40;93.40;;;;;;5013504;28;20174;-42
2023/09/25 06:30:59;;;;;;;5.10;1.87;;;11.50;92.50;;;;;;5012074;28;20212;-42
2023/09/25 06:33:25;;;;;;;3.73;1.57;;;11.50;93.10;;;;;;5013588;28;20217;-43
2023/09/25 06:35:52;;;;;;;2.13;1.60;;;11.60;91.80;;;;;;5017129;28;20213;-40
2023/09/25 06:38:19;;;;;;;3.13;1.37;;;11.60;91.30;;;;;;5017511;28;20245;-42
2023/09/25 06:40:45;;;;;;;4.67;1.87;;;11.70;89.10;;;;;;5017391;28;20208;-43
2023/09/25 06:43:12;;;;;;;3.20;2.23;;;11.70;84.40;;;;;;5017126;28;20694;-41
2023/09/25 06:45:38;;;;;;;2.77;1.63;;;11.80;85.80;;;;;;5017084;28;20554;-40
2023/09/25 06:48:04;;;;;;;2.67;1.30;;;11.80;85.60;;;;;;5017256;28;20189;-42
2023/09/25 06:50:30;;;;;;;3.63;1.50;;;11.90;87.30;;;;;;5016890;28;20547;-43
2023/09/25 06:52:57;;;;;;;2.37;1.43;;;12.00;88.20;;;;;;5017142;28;20189;-44
2023/09/25 06:55:22;;;;;;;4.10;1.67;;;12.00;86.20;;;;;;5016933;28;20192;-42
2023/09/25 06:57:48;;;;;;;4.93;1.80;;;12.00;85.20;;;;;;5015546;28;20201;-43
2023/09/25 07:00:14;;;;;;;3.37;1.70;;;12.00;83.60;;;;;;5016750;28;20214;-43
2023/09/25 07:02:40;;;;;;;3.17;1.73;;;12.10;81.80;;;;;;5016804;28;20173;-42
2023/09/25 07:05:06;;;;;;;3.07;1.60;;;12.20;78.00;;;;;;5017002;28;20192;-40
2023/09/25 07:07:32;;;;;;;2.20;1.47;;;12.20;75.00;;;;;;5016737;28;20185;-40
2023/09/25 07:09:58;;;;;;;3.83;1.67;;;12.30;73.60;;;;;;5016699;28;20205;-39
2023/09/25 07:12:24;;;;;;;6.87;1.80;;;12.30;66.30;;;;;;5016858;28;20239;-39
2023/09/25 07:14:55;;;;;;;5.43;1.80;;;12.40;70.30;;;;;;5016779;28;20205;-44
2023/09/25 07:17:22;;;;;;;1.87;1.33;;;12.40;76.20;;;;;;5016808;28;20169;-42
2023/09/25 07:19:52;;;;;;;3.27;1.60;;;12.50;76.90;;;;;;5016608;28;20205;-39
2023/09/25 07:22:18;;;;;;;3.03;1.53;;;12.50;73.70;;;;;;5016695;28;20206;-41
2023/09/25 07:24:43;;;;;;;3.37;1.43;;;12.60;69.20;;;;;;5016531;28;20209;-42
2023/09/25 07:27:09;;;;;;;2.50;1.80;;;12.70;68.30;;;;;;5016335;28;20640;-43
2023/09/25 07:29:36;;;;;;;2.17;1.50;;;12.80;73.90;;;;;;5016216;28;20559;-41
2023/09/25 07:32:02;;;;;;;2.37;1.40;;;12.80;70.90;;;;;;5016331;28;20182;-43
2023/09/25 07:34:29;;;;;;;3.47;1.97;;;13.00;69.30;;;;;;5016473;28;20236;-42
2023/09/25 07:36:55;;;;;;;4.37;1.80;;;13.10;71.60;;;;;;5016452;28;20551;-40
2023/09/25 07:39:22;;;;;;;3.63;1.47;;;13.20;60.10;;;;;;5016108;28;20201;-43
2023/09/25 07:41:50;;;;;;;2.53;1.87;;;13.20;58.30;;;;;;5016332;28;20178;-41
2023/09/25 07:44:16;;;;;;;3.73;1.60;;;13.30;58.20;;;;;;5016535;28;20274;-38
2023/09/25 07:46:43;;;;;;;2.57;1.60;;;13.40;52.50;;;;;;5014929;28;20193;-41
2023/09/25 07:49:09;;;;;;;8.60;2.03;;;13.50;53.60;;;;;;5015822;28;20201;-42
2023/09/25 07:51:36;;;;;;;3.97;1.50;;;13.50;49.80;;;;;;5016146;28;20190;-44
2023/09/25 07:54:03;;;;;;;3.13;2.03;;;13.60;46.90;;;;;;5015698;28;20216;-40
2023/09/25 07:56:30;;;;;;;5.03;1.50;;;13.80;45.50;;;;;;5015769;28;20684;-39
2023/09/25 07:58:56;;;;;;;3.63;1.30;;;13.80;43.80;;;;;;5015799;28;20243;-42
2023/09/25 08:01:22;;;;;;;4.13;1.60;;;13.90;35.50;;;;;;5016689;28;20180;-38
2023/09/25 08:03:53;;;;;;;4.77;1.50;;;14.00;36.90;;;;;;5014584;28;20185;-41
2023/09/25 08:06:21;;;;;;;2.43;1.60;;;14.00;38.20;;;;;;5015568;28;20190;-41
2023/09/25 08:08:47;;;;;;;2.80;1.60;;;14.10;32.10;;;;;;5015397;28;20185;-41
2023/09/25 08:11:15;;;;;;;4.30;1.70;;;14.10;31.60;;;;;;5014281;28;20189;-40
2023/09/25 08:13:41;;;;;;;8.47;2.00;;;14.20;27.50;;;;;;5015573;28;20589;-43
2023/09/25 08:16:07;;;;;;;3.70;1.70;;;14.30;31.20;;;;;;5015663;28;20552;-41
2023/09/25 08:18:33;;;;;;;5.23;1.73;;;14.40;22.30;;;;;;5015306;28;20213;-41
2023/09/25 08:21:00;;;;;;;4.43;2.13;;;14.40;21.10;;;;;;5015285;28;20544;-42
2023/09/25 08:23:26;;;;;;;5.13;1.90;;;14.50;20.00;;;;;;5015524;28;20224;-42
2023/09/25 08:25:53;;;;;;;5.67;1.70;;;14.60;20.60;;;;;;5015519;28;20213;-41
2023/09/25 08:28:19;;;;;;;2.67;1.90;;;14.60;18.60;;;;;;5015151;28;20716;-44
2023/09/25 08:30:44;;;;;;;2.27;1.60;;;14.80;19.90;;;;;;5015095;28;20237;-41
2023/09/25 08:33:11;;;;;;;4.20;2.00;;;14.80;18.20;;;;;;5014983;28;20177;-43
2023/09/25 08:35:36;;;;;;;3.50;1.50;;;15.00;18.60;;;;;;5015635;28;20630;-41
2023/09/25 08:38:02;;;;;;;6.03;1.63;;;15.00;12.90;;;;;;5015326;28;20188;-42
2023/09/25 08:40:31;;;;;;;3.50;1.43;;;15.10;14.00;;;;;;5013623;28;20220;-41
2023/09/25 08:42:57;;;;;;;2.63;1.57;;;15.20;16.20;;;;;;5015260;28;20602;-39
2023/09/25 08:45:23;;;;;;;3.57;1.73;;;15.30;10.10;;;;;;5014836;28;20652;-45
2023/09/25 08:47:49;;;;;;;4.00;1.57;;;15.30;13.70;;;;;;5014895;28;20177;-42
2023/09/25 08:50:15;;;;;;;5.17;1.80;;;15.40;16.90;;;;;;5014709;28;20704;-42
2023/09/25 08:52:41;;;;;;;2.80;1.70;;;15.50;12.30;;;;;;5014934;28;20228;-40
2023/09/25 08:55:08;;;;;;;3.67;1.70;;;15.60;8.70;;;;;;5015900;28;20201;-42
2023/09/25 08:57:35;;;;;;;4.93;1.50;;;15.70;12.80;;;;;;5016391;28;20229;-42
2023/09/25 09:00:14;;;;;;;6.93;1.63;;;15.90;11.20;;;;;;5015594;28;20625;-43
2023/09/25 09:02:40;;;;;;;3.07;1.43;;;15.90;16.50;;;;;;5014980;28;20166;-42
2023/09/25 09:05:11;;;;;;;4.17;1.40;;;16.00;12.90;;;;;;5015503;28;20186;-48
2023/09/25 09:07:38;;;;;;;2.33;1.20;;;16.20;6.20;;;;;;5015516;28;20185;-48
2023/09/25 09:10:04;;;;;;;4.27;1.90;;;16.30;9.50;;;;;;5015211;28;20216;-47
2023/09/25 09:12:30;;;;;;;3.47;1.60;;;16.30;1.90;;;;;;5015201;28;20197;-47
2023/09/25 09:14:55;;;;;;;2.83;1.50;;;16.40;2.20;;;;;;5015090;28;20206;-48
2023/09/25 09:17:26;;;;;;;3.67;2.23;;;16.50;5.90;;;;;;5015187;28;20551;-46
2023/09/25 09:19:52;;;;;;;2.60;1.50;;;16.60;1.10;;;;;;5014733;28;20205;-47
2023/09/25 09:22:19;;;;;;;3.47;1.47;;;16.80;7.10;;;;;;5014600;28;20185;-47
2023/09/25 09:24:47;;;;;;;3.50;1.87;;;16.90;8.40;;;;;;5013152;28;20645;-46
2023/09/25 09:27:14;;;;;;;2.27;1.50;;;17.00;3.50;;;;;;5012928;28;20196;-46
2023/09/25 09:29:44;;;;;;;6.20;1.70;;;17.10;1.00;;;;;;5014116;28;20214;-47
2023/09/25 09:32:10;;;;;;;4.43;1.53;;;17.20;1.00;;;;;;5014612;28;20583;-48
2023/09/25 09:34:39;;;;;;;3.50;1.60;;;17.30;1.00;;;;;;5014460;28;20220;-47
2023/09/25 09:37:08;;;;;;;4.27;1.60;;;17.40;1.00;;;;;;5014881;28;20220;-44
2023/09/25 09:39:34;;;;;;;5.17;1.63;;;17.40;1.00;;;;;;5014395;28;20654;-41
2023/09/25 09:42:05;;;;;;;4.40;1.50;;;17.60;1.00;;;;;;5014268;28;20186;-44
2023/09/25 09:44:32;;;;;;;4.33;1.60;;;17.60;1.00;;;;;;5013918;28;20178;-43
2023/09/25 09:47:01;;;;;;;5.60;1.90;;;17.80;1.00;;;;;;5013883;28;20208;-43
2023/09/25 09:49:30;;;;;;;2.37;1.43;;;17.80;1.00;;;;;;5014060;28;20217;-43
2023/09/25 09:51:56;;;;;;;5.27;1.80;;;17.90;1.00;;;;;;5013870;28;20184;-43
2023/09/25 09:54:23;;;;;;;7.47;1.40;;;18.00;1.00;;;;;;5013737;28;20201;-41
2023/09/25 09:56:49;;;;;;;2.63;1.70;;;18.10;1.00;;;;;;5013702;28;20178;-41
2023/09/25 09:59:16;;;;;;;3.40;1.77;;;18.20;1.00;;;;;;5013642;28;20224;-42
2023/09/25 10:01:49;;;;;;;4.23;1.53;;;18.30;1.00;;;;;;5013911;28;20178;-41
2023/09/25 10:04:15;;;;;;;2.30;1.30;;;18.40;1.10;;;;;;5014050;28;20248;-44
2023/09/25 10:06:48;;;;;;;3.53;1.37;;;18.50;4.60;;;;;;5013830;28;20290;-43
2023/09/25 10:09:14;;;;;;;4.73;1.70;;;18.70;1.00;;;;;;5012911;28;20213;-40
2023/09/25 10:11:48;;;;;;;2.70;1.80;;;18.70;9.80;;;;;;5013828;28;20183;-43
2023/09/25 10:14:20;;;;;;;3.47;1.83;;;18.80;1.00;;;;;;5013868;28;20267;-42
2023/09/25 10:16:51;;;;;;;6.50;1.50;;;19.00;1.00;;;;;;5013924;28;20162;-41
2023/09/25 10:19:20;;;;;;;7.13;1.83;;;19.10;1.00;;;;;;5013448;28;20201;-44
2023/09/25 10:22:06;;;;;;;2.83;1.50;;;19.20;1.00;;;;;;5013743;28;20189;-42
2023/09/25 10:24:33;;;;;;;1.90;1.20;;;19.30;1.00;;;;;;5013681;28;20195;-43
2023/09/25 10:26:59;;;;;;;6.23;1.40;;;19.20;1.00;;;;;;5013728;28;20224;-41
2023/09/25 10:29:26;;;;;;;2.57;1.57;;;19.50;6.80;;;;;;5013632;28;20197;-42
2023/09/25 10:31:52;;;;;;;2.47;1.40;;;19.50;1.00;;;;;;5014005;28;20684;-43
2023/09/25 10:34:18;;;;;;;5.43;1.83;;;19.70;1.00;;;;;;5013346;28;20202;-42
2023/09/25 10:36:47;;;;;;;2.23;1.67;;;19.80;1.00;;;;;;5013531;28;20181;-41
2023/09/25 10:39:16;;;;;;;2.63;1.47;;;19.80;1.00;;;;;;5013290;28;20240;-41
2023/09/25 10:41:56;;;;;;;3.57;1.30;;;19.90;1.00;;;;;;5013524;28;20201;-44
2023/09/25 10:44:24;;;;;;;1.90;1.30;;;20.00;1.00;;;;;;5013600;28;20595;-41
2023/09/25 10:46:49;;;;;;;3.40;1.40;;;20.10;1.00;;;;;;5013485;28;20189;-40
2023/09/25 10:49:15;;;;;;;5.60;1.43;;;20.20;1.00;;;;;;5013139;28;20210;-43
2023/09/25 10:51:41;;;;;;;5.37;1.70;;;20.20;1.00;;;;;;5013476;28;20193;-43
2023/09/25 10:54:06;;;;;;;5.43;1.50;;;20.30;1.00;;;;;;5013362;28;20640;-43
2023/09/25 10:56:32;;;;;;;2.17;1.20;;;20.40;1.00;;;;;;5013526;28;20613;-43
2023/09/25 10:58:58;;;;;;;1.63;1.20;;;20.50;1.00;;;;;;5013107;28;20217;-43
2023/09/25 11:01:28;;;;;;;2.30;1.13;;;20.60;1.00;;;;;;5013503;28;20212;-45
2023/09/25 11:03:57;;;;;;;3.33;1.30;;;20.70;1.00;;;;;;5013419;28;20182;-43
2023/09/25 11:06:23;;;;;;;2.97;1.50;;;20.70;1.00;;;;;;5013351;28;20189;-43
2023/09/25 11:09:17;;;;;;;1.63;1.23;;;20.80;1.00;;;;;;5013162;28;20215;-42
2023/09/25 11:11:43;;;;;;;5.50;1.30;;;20.90;1.00;;;;;;5012966;28;20197;-42
2023/09/25 11:14:09;;;;;;;2.40;1.50;;;21.00;1.00;;;;;;5012910;28;20204;-43
2023/09/25 11:16:35;;;;;;;3.87;1.13;;;21.10;1.00;;;;;;5013108;28;20181;-43
2023/09/25 11:19:19;;;;;;;4.20;1.37;;;21.20;1.00;;;;;;5013018;28;20237;-40
2023/09/25 11:21:50;;;;;;;1.93;1.20;;;21.40;1.00;;;;;;5016542;28;20170;-43
2023/09/25 11:24:17;;;;;;;2.27;1.40;;;21.50;1.00;;;;;;5016380;28;20235;-43
2023/09/25 11:26:43;;;;;;;2.60;1.50;;;21.60;1.00;;;;;;5016687;28;20232;-42
2023/09/25 11:29:10;;;;;;;2.10;1.33;;;21.70;1.00;;;;;;5017519;28;20206;-42
2023/09/25 11:31:37;;;;;;;4.00;1.77;;;21.80;1.00;;;;;;5018256;28;20185;-42
2023/09/25 11:34:03;;;;;;;1.60;1.20;;;21.90;1.00;;;;;;5018414;28;20236;-44
2023/09/25 11:36:30;;;;;;;2.27;1.17;;;22.00;1.00;;;;;;5017016;28;20186;-43
2023/09/25 11:38:57;;;;;;;5.50;1.63;;;22.20;1.00;;;;;;5017503;28;20173;-41
2023/09/25 11:41:23;;;;;;;4.00;1.80;;;22.20;1.00;;;;;;5017477;28;20182;-43
2023/09/25 11:43:48;;;;;;;2.13;1.13;;;22.30;1.00;;;;;;5017817;28;20207;-42
2023/09/25 11:46:14;;;;;;;5.23;1.77;;;22.40;1.00;;;;;;5017173;28;20186;-43
2023/09/25 11:48:40;;;;;;;3.27;1.20;;;22.60;1.00;;;;;;5017154;28;20185;-43
2023/09/25 11:51:05;;;;;;;2.27;1.40;;;22.70;1.00;;;;;;5017817;28;20201;-43
2023/09/25 11:53:31;;;;;;;1.47;1.10;;;22.80;1.00;;;;;;5017054;28;20299;-42
2023/09/25 11:55:57;;;;;;;1.70;1.10;;;22.90;1.00;;;;;;5017192;28;20185;-42
2023/09/25 11:58:22;;;;;;;1.70;1.13;;;23.00;1.00;;;;;;5016907;28;20197;-42
2023/09/25 12:00:48;;;;;;;2.07;1.27;;;23.00;1.00;;;;;;5017128;28;20240;-40
2023/09/25 12:03:14;;;;;;;3.20;1.10;;;23.10;1.00;;;;;;5017063;28;20205;-43
2023/09/25 12:05:40;;;;;;;2.67;1.30;;;23.10;1.00;;;;;;5016351;28;20547;-42
2023/09/25 12:08:10;;;;;;;1.30;1.10;;;23.20;1.00;;;;;;5015659;28;20182;-42
2023/09/25 12:10:39;;;;;;;2.07;1.23;;;23.30;1.00;;;;;;5015596;28;20272;-41
2023/09/25 12:13:07;;;;;;;5.13;1.40;;;23.30;1.00;;;;;;5015500;28;20185;-41
2023/09/25 12:15:33;;;;;;;4.07;1.30;;;23.30;1.00;;;;;;5015463;28;20729;-40
2023/09/25 12:17:59;;;;;;;2.20;1.20;;;23.40;1.00;;;;;;5015624;28;20205;-42
2023/09/25 12:20:25;;;;;;;5.50;1.43;;;23.50;1.00;;;;;;5015634;28;20202;-41
2023/09/25 12:22:53;;;;;;;2.50;1.30;;;23.60;1.00;;;;;;5015647;28;20221;-41
2023/09/25 12:25:19;;;;;;;3.03;1.13;;;23.70;1.00;;;;;;5016082;28;20541;-40
2023/09/25 12:27:45;;;;;;;2.17;1.23;;;23.80;1.00;;;;;;5015567;28;20704;-41
2023/09/25 12:30:16;;;;;;;7.00;1.43;;;23.90;1.00;;;;;;5015416;28;20208;-42
2023/09/25 12:32:47;;;;;;;2.20;1.30;;;23.90;99.90;;;;;;5014761;28;20197;-41
2023/09/25 12:35:16;;;;;;;4.37;1.30;;;23.90;1.00;;;;;;5013860;28;20320;-41
2023/09/25 12:37:46;;;;;;;2.53;1.33;;;23.90;1.00;;;;;;5015403;28;20185;-41
2023/09/25 12:40:15;;;;;;;2.33;1.40;;;24.00;1.00;;;;;;5015176;28;20201;-43
2023/09/25 12:42:42;;;;;;;3.77;1.30;;;24.00;1.00;;;;;;5015205;28;20213;-42
2023/09/25 12:45:09;;;;;;;4.80;1.53;;;24.10;1.00;;;;;;5014886;28;20182;-42
2023/09/25 12:47:34;;;;;;;2.40;1.20;;;24.20;1.00;;;;;;5014599;28;20653;-43